createdAt,value
2022-10-28T00:01:24.506Z,96.37
2022-10-28T00:03:54.400Z,95.75
2022-10-28T00:06:27.174Z,95.56
2022-10-28T00:08:55.215Z,95.52
2022-10-28T00:11:25.467Z,96.01
2022-10-28T00:13:55.323Z,95.83
2022-10-28T00:16:29.191Z,96.14
2022-10-28T00:18:58.913Z,96.34
2022-10-28T00:21:29.937Z,96.58
2022-10-28T00:23:58.322Z,96.90
2022-10-28T00:26:28.713Z,97.71
2022-10-28T00:29:02.481Z,96.75
2022-10-28T00:31:31.856Z,96.95
2022-10-28T00:34:02.088Z,96.93
2022-10-28T00:36:32.251Z,97.65
2022-10-28T00:39:01.269Z,97.50
2022-10-28T00:41:38.824Z,97.85
2022-10-28T00:44:58.838Z,97.30
2022-10-28T00:47:29.326Z,97.00
2022-10-28T00:50:04.977Z,96.59
2022-10-28T00:52:34.077Z,96.93
2022-10-28T00:55:03.101Z,96.62
2022-10-28T00:57:34.074Z,96.73
2022-10-28T01:00:03.610Z,96.29
2022-10-28T01:02:34.423Z,96.71
2022-10-28T01:05:02.615Z,96.48
2022-10-28T01:07:30.455Z,96.53
2022-10-28T01:09:58.151Z,96.42
2022-10-28T01:12:52.294Z,96.52
2022-10-28T01:15:26.675Z,95.97
2022-10-28T01:18:04.370Z,96.33
2022-10-28T01:20:48.246Z,96.49
2022-10-28T01:23:57.860Z,96.35
2022-10-28T01:27:04.310Z,95.93
2022-10-28T01:29:46.934Z,95.51
2022-10-28T01:32:29.320Z,95.09
2022-10-28T01:35:06.480Z,94.93
2022-10-28T01:38:15.228Z,95.12
2022-10-28T01:40:55.267Z,94.96
2022-10-28T01:43:42.303Z,95.14
2022-10-28T01:46:19.402Z,94.93
2022-10-28T01:49:05.811Z,95.08
2022-10-28T01:51:54.524Z,95.76
2022-10-28T01:54:27.290Z,94.75
2022-10-28T01:56:58.044Z,94.65
2022-10-28T01:59:28.772Z,94.52
2022-10-28T02:01:57.216Z,94.55
2022-10-28T02:04:25.363Z,94.80
2022-10-28T02:06:58.258Z,95.86
2022-10-28T02:09:58.023Z,96.01
2022-10-28T02:12:35.133Z,96.09
2022-10-28T02:15:23.957Z,95.64
2022-10-28T02:18:16.636Z,95.90
2022-10-28T02:20:59.517Z,96.13
2022-10-28T02:23:46.629Z,95.73
2022-10-28T02:26:14.438Z,95.37
2022-10-28T02:29:00.905Z,95.27
2022-10-28T02:31:37.128Z,95.31
2022-10-28T02:34:12.063Z,95.54
2022-10-28T02:36:43.903Z,95.09
2022-10-28T02:39:12.024Z,94.95
2022-10-28T02:41:54.556Z,94.94
2022-10-28T02:44:28.901Z,94.77
2022-10-28T02:47:00.598Z,94.46
2022-10-28T02:49:31.908Z,94.70
2022-10-28T02:52:02.372Z,94.97
2022-10-28T02:54:38.226Z,95.25
2022-10-28T02:57:12.095Z,94.98
2022-10-28T02:59:40.862Z,94.68
2022-10-28T03:02:09.098Z,94.68
2022-10-28T03:04:36.926Z,94.54
2022-10-28T03:07:04.702Z,94.89
2022-10-28T03:09:32.948Z,94.94
2022-10-28T03:12:00.706Z,95.15
2022-10-28T03:14:28.441Z,95.17
2022-10-28T03:16:56.221Z,95.44
2022-10-28T03:19:24.998Z,95.47
2022-10-28T03:21:52.734Z,95.84
2022-10-28T03:24:20.639Z,96.29
2022-10-28T03:26:48.544Z,95.63
2022-10-28T03:29:16.262Z,95.89
2022-10-28T03:31:44.115Z,95.77
2022-10-28T03:34:11.871Z,96.36
2022-10-28T03:36:39.684Z,96.66
2022-10-28T03:39:07.552Z,96.79
2022-10-28T03:41:35.362Z,96.69
2022-10-28T03:44:03.432Z,96.16
2022-10-28T03:46:35.092Z,96.28
2022-10-28T03:49:04.149Z,96.79
2022-10-28T03:51:31.884Z,96.31
2022-10-28T03:53:59.707Z,96.17
2022-10-28T03:56:27.483Z,96.35
2022-10-28T03:58:55.267Z,96.02
2022-10-28T04:01:23.110Z,95.45
2022-10-28T04:03:51.035Z,95.15
2022-10-28T04:06:18.825Z,94.81
2022-10-28T04:08:46.643Z,94.47
2022-10-28T04:11:14.393Z,94.54
2022-10-28T04:13:42.278Z,94.52
2022-10-28T04:16:10.180Z,94.66
2022-10-28T04:18:38.014Z,94.55
2022-10-28T04:21:06.042Z,94.04
2022-10-28T04:23:34.136Z,94.49
2022-10-28T04:26:01.838Z,94.89
2022-10-28T04:28:29.651Z,94.87
2022-10-28T04:30:57.448Z,94.90
2022-10-28T04:33:25.223Z,94.92
2022-10-28T04:35:53.020Z,94.69
2022-10-28T04:38:20.999Z,94.69
2022-10-28T04:40:49.272Z,94.47
2022-10-28T04:43:17.280Z,94.76
2022-10-28T04:45:46.964Z,95.06
2022-10-28T04:48:15.111Z,94.61
2022-10-28T04:50:43.405Z,94.92
2022-10-28T04:53:12.634Z,95.05
2022-10-28T04:55:40.550Z,94.70
2022-10-28T04:58:09.736Z,95.04
2022-10-28T05:00:37.508Z,95.67
2022-10-28T05:03:05.453Z,95.48
2022-10-28T05:05:33.731Z,95.02
2022-10-28T05:08:01.983Z,94.56
2022-10-28T05:10:30.699Z,94.78
2022-10-28T05:12:58.599Z,94.68
2022-10-28T05:15:26.676Z,94.76
2022-10-28T05:17:55.164Z,94.84
2022-10-28T05:20:23.540Z,94.74
2022-10-28T05:22:54.910Z,94.91
2022-10-28T05:25:23.865Z,94.62
2022-10-28T05:27:52.033Z,94.67
2022-10-28T05:30:19.946Z,94.65
2022-10-28T05:32:49.324Z,94.84
2022-10-28T05:35:19.476Z,94.67
2022-10-28T05:37:47.326Z,94.39
2022-10-28T05:40:15.245Z,94.44
2022-10-28T05:42:43.517Z,94.32
2022-10-28T05:45:12.529Z,94.54
2022-10-28T05:47:48.428Z,94.61
2022-10-28T05:50:18.986Z,95.20
2022-10-28T05:52:48.476Z,95.12
2022-10-28T05:55:19.450Z,95.32
2022-10-28T05:57:48.575Z,94.91
2022-10-28T06:00:19.155Z,94.47
2022-10-28T06:02:46.992Z,94.42
2022-10-28T06:05:15.274Z,94.38
2022-10-28T06:07:42.995Z,94.16
2022-10-28T06:10:11.746Z,94.55
2022-10-28T06:12:38.778Z,94.77
2022-10-28T06:15:07.254Z,94.48
2022-10-28T06:17:35.086Z,94.43
2022-10-28T06:20:04.220Z,94.53
2022-10-28T06:22:32.156Z,94.58
2022-10-28T06:25:00.014Z,94.57
2022-10-28T06:27:29.620Z,94.50
2022-10-28T06:29:57.295Z,94.69
2022-10-28T06:32:25.162Z,94.56
2022-10-28T06:34:52.964Z,95.01
2022-10-28T06:37:20.646Z,95.27
2022-10-28T06:39:51.321Z,95.21
2022-10-28T06:42:19.332Z,94.97
2022-10-28T06:44:48.070Z,94.66
2022-10-28T06:47:17.997Z,94.54
2022-10-28T06:49:45.882Z,94.20
2022-10-28T06:52:13.729Z,93.88
2022-10-28T06:54:41.592Z,93.86
2022-10-28T06:57:10.592Z,93.82
2022-10-28T06:59:38.521Z,93.92
2022-10-28T07:02:12.184Z,93.74
2022-10-28T07:04:39.882Z,93.59
2022-10-28T07:07:07.980Z,93.62
2022-10-28T07:09:39.512Z,93.58
2022-10-28T07:12:07.793Z,93.61
2022-10-28T07:14:35.679Z,93.61
2022-10-28T07:17:04.006Z,93.90
2022-10-28T07:19:32.024Z,95.44
2022-10-28T07:21:59.954Z,94.31
2022-10-28T07:27:00.590Z,93.44
2022-10-28T07:29:28.394Z,93.38
2022-10-28T07:31:56.900Z,93.20
2022-10-28T07:34:27.140Z,93.15
2022-10-28T07:36:55.501Z,92.94
2022-10-28T07:39:23.606Z,92.96
2022-10-28T07:41:51.617Z,93.27
2022-10-28T07:44:19.356Z,93.16
2022-10-28T07:46:47.147Z,93.03
2022-10-28T07:49:14.965Z,93.20
2022-10-28T07:51:43.185Z,93.16
2022-10-28T07:54:11.054Z,93.16
2022-10-28T07:56:38.838Z,93.04
2022-10-28T07:59:06.675Z,92.92
2022-10-28T08:01:35.151Z,92.80
2022-10-28T08:04:03.087Z,92.75
2022-10-28T08:06:30.882Z,92.83
2022-10-28T08:08:58.590Z,92.63
2022-10-28T08:11:26.394Z,92.55
2022-10-28T08:13:55.923Z,92.48
2022-10-28T08:16:24.107Z,92.40
2022-10-28T08:18:53.222Z,92.16
2022-10-28T08:21:21.382Z,91.96
2022-10-28T08:23:49.770Z,91.89
2022-10-28T08:26:17.785Z,91.80
2022-10-28T08:28:45.782Z,91.75
2022-10-28T08:31:13.612Z,91.50
2022-10-28T08:33:46.993Z,91.40
2022-10-28T08:36:16.766Z,91.29
2022-10-28T08:38:48.140Z,91.29
2022-10-28T08:41:44.968Z,91.06
2022-10-28T08:44:34.792Z,91.18
2022-10-28T08:47:14.633Z,91.23
2022-10-28T08:49:47.103Z,91.04
2022-10-28T08:52:52.962Z,91.00
2022-10-28T08:55:25.304Z,90.64
2022-10-28T08:57:57.701Z,90.64
2022-10-28T09:00:33.426Z,90.54
2022-10-28T09:03:17.454Z,90.48
2022-10-28T09:05:51.110Z,90.20
2022-10-28T09:08:30.945Z,90.11
2022-10-28T09:11:11.015Z,89.90
2022-10-28T09:13:57.198Z,89.64
2022-10-28T09:16:35.781Z,89.54
2022-10-28T09:19:42.191Z,89.17
2022-10-28T09:22:20.911Z,89.48
2022-10-28T09:24:53.582Z,89.03
2022-10-28T09:28:18.827Z,89.00
2022-10-28T09:31:06.911Z,88.69
2022-10-28T09:33:35.019Z,88.35
2022-10-28T09:36:12.953Z,88.49
2022-10-28T09:38:41.853Z,88.30
2022-10-28T09:41:25.798Z,87.70
2022-10-28T09:43:57.281Z,87.33
2022-10-28T09:46:33.221Z,87.10
2022-10-28T09:49:11.556Z,87.12
2022-10-28T09:51:52.777Z,87.21
2022-10-28T09:54:29.898Z,86.82
2022-10-28T09:56:57.855Z,86.71
2022-10-28T09:59:28.573Z,86.67
2022-10-28T10:01:56.764Z,86.56
2022-10-28T10:04:28.118Z,86.75
2022-10-28T10:07:02.746Z,86.60
2022-10-28T10:09:57.869Z,86.78
2022-10-28T10:12:27.191Z,86.80
2022-10-28T10:14:58.615Z,86.99
2022-10-28T10:17:39.993Z,87.15
2022-10-28T10:20:11.261Z,87.08
2022-10-28T10:22:41.642Z,87.06
2022-10-28T10:25:31.008Z,86.93
2022-10-28T10:28:06.182Z,86.74
2022-10-28T10:30:48.907Z,86.61
2022-10-28T10:33:23.714Z,86.74
2022-10-28T10:36:00.566Z,86.80
2022-10-28T10:38:29.652Z,86.50
2022-10-28T10:40:58.192Z,86.48
2022-10-28T10:43:34.046Z,86.28
2022-10-28T10:46:14.962Z,85.77
2022-10-28T10:48:43.450Z,85.64
2022-10-28T10:51:26.049Z,85.72
2022-10-28T10:54:00.830Z,85.72
2022-10-28T10:56:31.425Z,85.75
2022-10-28T10:59:02.809Z,85.88
2022-10-28T11:01:37.138Z,85.86
2022-10-28T11:04:07.635Z,85.77
2022-10-28T11:06:41.430Z,85.80
2022-10-28T11:09:27.613Z,85.68
2022-10-28T11:11:56.391Z,85.18
2022-10-28T11:14:29.338Z,84.92
2022-10-28T11:16:59.861Z,84.85
2022-10-28T11:19:31.771Z,85.03
2022-10-28T11:22:21.024Z,85.02
2022-10-28T11:25:03.993Z,84.89
2022-10-28T11:27:55.327Z,84.65
2022-10-28T11:30:50.579Z,84.66
2022-10-28T11:33:30.177Z,84.34
2022-10-28T11:36:19.999Z,84.30
2022-10-28T11:39:06.668Z,84.22
2022-10-28T11:41:59.590Z,84.12
2022-10-28T11:45:03.531Z,83.87
2022-10-28T11:47:37.240Z,83.74
2022-10-28T11:50:10.810Z,83.28
2022-10-28T11:53:00.376Z,83.05
2022-10-28T11:55:37.409Z,82.86
2022-10-28T11:58:23.072Z,82.75
2022-10-28T12:01:00.055Z,82.44
2022-10-28T12:03:39.082Z,82.43
2022-10-28T12:06:37.764Z,82.55
2022-10-28T12:09:50.204Z,82.48
2022-10-28T12:12:41.342Z,82.61
2022-10-28T12:15:24.587Z,82.71
2022-10-28T12:17:55.799Z,82.74
2022-10-28T12:20:30.013Z,82.61
2022-10-28T12:23:02.474Z,82.09
2022-10-28T12:25:35.845Z,82.25
2022-10-28T12:28:11.699Z,81.79
2022-10-28T12:30:43.484Z,81.86
2022-10-28T12:33:14.150Z,81.55
2022-10-28T12:36:06.719Z,81.90
2022-10-28T12:38:43.192Z,82.18
2022-10-28T12:41:21.291Z,81.89
2022-10-28T12:43:54.223Z,81.94
2022-10-28T12:46:40.885Z,82.00
2022-10-28T12:49:31.984Z,82.28
2022-10-28T12:52:06.179Z,82.07
2022-10-28T12:54:53.575Z,82.03
2022-10-28T12:57:25.350Z,81.94
2022-10-28T13:00:22.814Z,81.88
2022-10-28T13:03:01.850Z,81.92
2022-10-28T13:05:54.089Z,81.84
2022-10-28T13:08:45.113Z,81.96
2022-10-28T13:11:47.554Z,81.82
2022-10-28T13:14:24.462Z,81.98
2022-10-28T13:16:54.965Z,82.02
2022-10-28T13:19:37.730Z,82.08
2022-10-28T13:22:11.520Z,82.24
2022-10-28T13:25:21.470Z,82.41
2022-10-28T13:27:58.838Z,82.44
2022-10-28T13:30:28.264Z,82.37
2022-10-28T13:33:08.720Z,82.71
2022-10-28T13:35:37.112Z,82.90
2022-10-28T13:38:10.959Z,82.95
2022-10-28T13:40:38.606Z,82.91
2022-10-28T13:43:20.953Z,83.04
2022-10-28T13:45:55.206Z,83.00
2022-10-28T13:48:29.141Z,83.19
2022-10-28T13:51:09.432Z,83.26
2022-10-28T13:53:38.668Z,83.36
2022-10-28T13:56:27.805Z,83.50
2022-10-28T13:58:59.838Z,83.68
2022-10-28T14:02:01.569Z,83.74
2022-10-28T14:04:38.462Z,83.87
2022-10-28T14:07:12.729Z,83.94
2022-10-28T14:09:41.458Z,83.88
2022-10-28T14:12:17.390Z,84.13
2022-10-28T14:14:52.493Z,84.18
2022-10-28T14:17:36.921Z,84.15
2022-10-28T14:20:19.916Z,84.38
2022-10-28T14:22:48.210Z,84.67
2022-10-28T14:25:40.476Z,84.66
2022-10-28T14:28:27.163Z,84.91
2022-10-28T14:31:33.062Z,85.19
2022-10-28T14:34:00.829Z,85.39
2022-10-28T14:36:48.956Z,85.54
2022-10-28T14:39:59.220Z,85.49
2022-10-28T14:42:34.772Z,85.69
2022-10-28T14:45:30.599Z,86.00
2022-10-28T14:48:27.588Z,86.11
2022-10-28T14:50:57.364Z,86.23
2022-10-28T14:53:30.435Z,86.59
2022-10-28T14:56:10.847Z,86.39
2022-10-28T14:58:43.868Z,86.37
2022-10-28T15:01:18.003Z,86.73
2022-10-28T15:03:48.623Z,86.92
2022-10-28T15:06:39.444Z,86.94
2022-10-28T15:09:27.477Z,87.21
2022-10-28T15:12:01.727Z,87.40
2022-10-28T15:14:40.607Z,87.57
2022-10-28T15:17:13.202Z,87.91
2022-10-28T15:19:41.910Z,87.90
2022-10-28T15:22:28.255Z,88.18
2022-10-28T15:25:04.460Z,88.42
2022-10-28T15:27:36.472Z,88.35
2022-10-28T15:30:28.090Z,88.75
2022-10-28T15:33:32.086Z,88.86
2022-10-28T15:36:17.560Z,89.13
2022-10-28T15:38:49.784Z,89.43
2022-10-28T15:41:26.434Z,89.54
2022-10-28T15:44:02.804Z,89.71
2022-10-28T15:46:33.543Z,89.90
2022-10-28T15:49:01.843Z,90.18
2022-10-28T15:51:29.946Z,90.40
2022-10-28T15:54:11.840Z,90.40
2022-10-28T15:56:57.845Z,90.57
2022-10-28T15:59:26.698Z,90.57
2022-10-28T16:01:59.271Z,90.98
2022-10-28T16:04:39.494Z,91.22
2022-10-28T16:07:08.914Z,91.13
2022-10-28T16:09:48.825Z,91.63
2022-10-28T16:12:21.040Z,91.57
2022-10-28T16:14:56.293Z,91.58
2022-10-28T16:17:36.348Z,91.77
2022-10-28T16:20:15.455Z,91.63
2022-10-28T16:22:46.774Z,91.49
2022-10-28T16:25:20.678Z,92.02
2022-10-28T16:27:50.093Z,92.14
2022-10-28T16:30:18.232Z,92.50
2022-10-28T16:32:48.871Z,92.97
2022-10-28T16:35:21.951Z,93.12
2022-10-28T16:37:55.140Z,92.76
2022-10-28T16:43:17.360Z,94.91
2022-10-28T16:45:45.676Z,96.06
2022-10-28T16:48:16.200Z,96.85
2022-10-28T16:50:49.272Z,97.37
2022-10-28T16:53:18.072Z,97.89
2022-10-28T16:55:46.295Z,99.11
2022-10-28T16:58:14.160Z,99.97
2022-10-28T17:00:43.008Z,100.00
2022-10-28T17:03:17.053Z,100.00
2022-10-28T17:05:45.318Z,100.00
2022-10-28T17:08:13.611Z,100.00
2022-10-28T17:10:42.708Z,100.00
2022-10-28T17:13:14.886Z,100.00
2022-10-28T17:15:43.540Z,100.00
2022-10-28T17:18:14.979Z,100.00
2022-10-28T17:20:42.800Z,100.00
2022-10-28T17:23:10.673Z,100.00
2022-10-28T17:25:38.484Z,100.00
2022-10-28T17:28:06.410Z,100.00
2022-10-28T17:30:34.400Z,100.00
2022-10-28T17:33:02.553Z,100.00
2022-10-28T17:35:30.351Z,100.00
2022-10-28T17:37:58.664Z,100.00
2022-10-28T17:40:26.502Z,100.00
2022-10-28T17:42:58.279Z,100.00
2022-10-28T17:45:26.305Z,100.00
2022-10-28T17:47:54.196Z,100.00
2022-10-28T17:50:22.078Z,100.00
2022-10-28T17:52:49.957Z,100.00
2022-10-28T17:55:17.681Z,100.00
2022-10-28T17:57:45.646Z,100.00
2022-10-28T18:00:14.159Z,100.00
2022-10-28T18:02:42.073Z,100.00
2022-10-28T18:05:10.125Z,100.00
2022-10-28T18:07:37.962Z,100.00
2022-10-28T18:10:06.516Z,100.00
2022-10-28T18:12:34.249Z,100.00
2022-10-28T18:15:02.106Z,100.00
2022-10-28T18:17:29.903Z,100.00
2022-10-28T18:20:01.511Z,100.00
2022-10-28T18:22:29.283Z,100.00
2022-10-28T18:24:57.077Z,100.00
2022-10-28T18:27:24.882Z,100.00
2022-10-28T18:29:52.737Z,100.00
2022-10-28T18:32:20.646Z,100.00
2022-10-28T18:34:48.578Z,100.00
2022-10-28T18:37:16.357Z,100.00
2022-10-28T18:39:44.374Z,100.00
2022-10-28T18:42:13.092Z,100.00
2022-10-28T18:44:41.820Z,100.00
2022-10-28T18:47:09.505Z,100.00
2022-10-28T18:49:37.321Z,100.00
2022-10-28T18:52:05.082Z,100.00
2022-10-28T18:54:34.189Z,100.00
2022-10-28T18:57:02.033Z,100.00
2022-10-28T18:59:29.758Z,100.00
2022-10-28T19:01:57.896Z,100.00
2022-10-28T19:04:25.798Z,100.00
2022-10-28T19:06:53.731Z,100.00
2022-10-28T19:09:21.620Z,100.00
2022-10-28T19:11:49.340Z,100.00
2022-10-28T19:14:17.127Z,100.00
2022-10-28T19:16:44.989Z,100.00
2022-10-28T19:19:12.723Z,100.00
2022-10-28T19:21:40.543Z,100.00
2022-10-28T19:24:08.645Z,100.00
2022-10-28T19:26:36.566Z,100.00
2022-10-28T19:29:04.740Z,100.00
2022-10-28T19:31:36.117Z,100.00
2022-10-28T19:34:03.871Z,100.00
2022-10-28T19:36:31.671Z,100.00
2022-10-28T19:38:59.642Z,100.00
2022-10-28T19:41:29.226Z,100.00
2022-10-28T19:43:59.379Z,100.00
2022-10-28T19:46:30.961Z,100.00
2022-10-28T19:49:00.648Z,100.00
2022-10-28T19:51:31.459Z,100.00
2022-10-28T19:54:01.314Z,100.00
2022-10-28T19:56:31.671Z,100.00
2022-10-28T19:59:02.275Z,100.00
2022-10-28T20:01:35.885Z,100.00
2022-10-28T20:04:04.462Z,100.00
2022-10-28T20:06:35.049Z,100.00
2022-10-28T20:09:03.590Z,100.00
2022-10-28T20:11:33.969Z,100.00
2022-10-28T20:14:04.525Z,100.00
2022-10-28T20:16:33.250Z,100.00
2022-10-28T20:19:01.036Z,100.00
2022-10-28T20:21:30.940Z,100.00
2022-10-28T20:23:58.887Z,100.00
2022-10-28T20:26:32.014Z,100.00
2022-10-28T20:29:02.915Z,100.00
2022-10-28T20:31:32.203Z,100.00
2022-10-28T20:34:03.883Z,100.00
2022-10-28T20:36:40.147Z,100.00
2022-10-28T20:39:12.997Z,100.00
2022-10-28T20:41:41.944Z,100.00
2022-10-28T20:44:09.932Z,100.00
2022-10-28T20:46:38.727Z,100.00
2022-10-28T20:49:08.711Z,100.00
2022-10-28T20:51:37.052Z,100.00
2022-10-28T20:54:05.150Z,100.00
2022-10-28T20:56:36.246Z,100.00
2022-10-28T20:59:05.009Z,100.00
2022-10-28T21:01:41.022Z,100.00
2022-10-28T21:04:10.852Z,100.00
2022-10-28T21:06:40.005Z,100.00
2022-10-28T21:09:08.886Z,100.00
2022-10-28T21:11:36.709Z,100.00
2022-10-28T21:14:04.404Z,100.00
2022-10-28T21:16:33.330Z,100.00
2022-10-28T21:19:01.325Z,100.00
2022-10-28T21:21:30.414Z,100.00
2022-10-28T21:24:00.719Z,100.00
2022-10-28T21:26:28.698Z,100.00
2022-10-28T21:28:56.594Z,100.00
2022-10-28T21:31:25.079Z,100.00
2022-10-28T21:33:53.476Z,100.00
2022-10-28T21:36:22.312Z,100.00
2022-10-28T21:38:55.429Z,100.00
2022-10-28T21:41:24.300Z,100.00
2022-10-28T21:43:54.335Z,100.00
2022-10-28T21:46:23.618Z,100.00
2022-10-28T21:48:52.734Z,100.00
2022-10-28T21:51:20.652Z,100.00
2022-10-28T21:53:48.400Z,100.00
2022-10-28T21:56:19.321Z,100.00
2022-10-28T21:58:49.371Z,100.00
2022-10-28T22:01:22.372Z,100.00
2022-10-28T22:03:51.903Z,100.00
2022-10-28T22:06:19.704Z,100.00
2022-10-28T22:08:47.660Z,100.00
2022-10-28T22:11:18.019Z,100.00
2022-10-28T22:13:46.178Z,100.00
2022-10-28T22:16:16.186Z,100.00
2022-10-28T22:18:44.597Z,100.00
2022-10-28T22:21:15.447Z,100.00
2022-10-28T22:23:43.707Z,100.00
2022-10-28T22:26:14.789Z,100.00
2022-10-28T22:28:43.033Z,100.00
2022-10-28T22:31:15.028Z,100.00
2022-10-28T22:33:43.419Z,100.00
2022-10-28T22:36:13.733Z,100.00
2022-10-28T22:38:42.212Z,100.00
2022-10-28T22:41:21.801Z,100.00
2022-10-28T22:43:54.668Z,100.00
2022-10-28T22:46:24.361Z,100.00
2022-10-28T22:48:53.231Z,100.00
2022-10-28T22:51:21.682Z,100.00
2022-10-28T22:53:50.209Z,100.00
2022-10-28T22:56:23.878Z,100.00
2022-10-28T22:59:00.303Z,100.00
2022-10-28T23:01:29.106Z,100.00
2022-10-28T23:03:57.328Z,100.00
2022-10-28T23:06:26.632Z,100.00
2022-10-28T23:08:54.871Z,100.00
2022-10-28T23:11:23.129Z,100.00
2022-10-28T23:13:53.194Z,100.00
2022-10-28T23:16:22.194Z,100.00
2022-10-28T23:18:52.709Z,100.00
2022-10-28T23:21:23.073Z,100.00
2022-10-28T23:23:55.722Z,100.00
2022-10-28T23:26:24.312Z,100.00
2022-10-28T23:28:53.938Z,100.00
2022-10-28T23:31:22.802Z,100.00
2022-10-28T23:33:50.907Z,100.00
2022-10-28T23:36:18.715Z,100.00
2022-10-28T23:38:46.632Z,100.00
2022-10-28T23:41:18.450Z,100.00
2022-10-28T23:43:48.766Z,100.00
2022-10-28T23:46:17.356Z,100.00
2022-10-28T23:48:45.297Z,100.00
2022-10-28T23:51:13.063Z,100.00
2022-10-28T23:53:40.886Z,100.00
2022-10-28T23:56:08.942Z,100.00
2022-10-28T23:58:36.745Z,100.00
